createdAt,value
2023-01-17T00:02:20.818Z,2.83
2023-01-17T00:05:06.786Z,2.89
2023-01-17T00:07:52.969Z,2.81
2023-01-17T00:10:24.724Z,2.75
2023-01-17T00:13:00.010Z,2.75
2023-01-17T00:15:30.897Z,2.76
2023-01-17T00:17:58.476Z,2.80
2023-01-17T00:20:47.144Z,2.83
2023-01-17T00:23:37.935Z,2.98
2023-01-17T00:26:06.692Z,2.89
2023-01-17T00:28:40.158Z,2.73
2023-01-17T00:31:08.810Z,2.73
2023-01-17T00:33:36.062Z,2.70
2023-01-17T00:36:03.749Z,2.67
2023-01-17T00:38:32.548Z,2.69
2023-01-17T00:41:13.573Z,2.70
2023-01-17T00:43:59.634Z,2.76
2023-01-17T00:46:45.712Z,2.86
2023-01-17T00:49:31.508Z,2.83
2023-01-17T00:52:17.361Z,2.86
2023-01-17T00:55:03.178Z,2.83
2023-01-17T00:57:48.998Z,2.81
2023-01-17T01:00:37.531Z,2.79
2023-01-17T01:03:28.037Z,2.83
2023-01-17T01:06:13.727Z,2.75
2023-01-17T01:08:59.890Z,2.70
2023-01-17T01:11:45.591Z,2.75
2023-01-17T01:14:31.730Z,2.84
2023-01-17T01:17:17.663Z,2.96
2023-01-17T01:20:03.717Z,2.96
2023-01-17T01:22:49.283Z,3.05
2023-01-17T01:25:35.363Z,3.03
2023-01-17T01:28:31.274Z,3.00
2023-01-17T01:31:21.544Z,3.08
2023-01-17T01:33:50.247Z,3.11
2023-01-17T01:36:17.497Z,3.17
2023-01-17T01:38:45.926Z,3.14
2023-01-17T01:41:13.209Z,3.10
2023-01-17T01:43:54.020Z,3.27
2023-01-17T01:46:30.537Z,3.36
2023-01-17T01:49:28.731Z,3.32
2023-01-17T01:51:59.962Z,3.40
2023-01-17T01:54:30.770Z,3.18
2023-01-17T01:56:59.044Z,3.14
2023-01-17T01:59:26.535Z,3.11
2023-01-17T02:01:55.712Z,3.00
2023-01-17T02:04:22.996Z,3.11
2023-01-17T02:06:53.149Z,3.04
2023-01-17T02:09:20.464Z,3.04
2023-01-17T02:11:47.799Z,3.19
2023-01-17T02:14:19.133Z,3.22
2023-01-17T02:17:05.588Z,3.27
2023-01-17T02:20:10.237Z,3.21
2023-01-17T02:22:56.070Z,3.15
2023-01-17T02:25:44.741Z,3.10
2023-01-17T02:28:27.045Z,3.11
2023-01-17T02:31:23.757Z,3.05
2023-01-17T02:33:59.086Z,3.10
2023-01-17T02:36:39.630Z,3.05
2023-01-17T02:39:15.764Z,2.87
2023-01-17T02:41:45.017Z,2.79
2023-01-17T02:44:16.316Z,2.69
2023-01-17T02:46:47.142Z,2.59
2023-01-17T02:49:15.460Z,2.59
2023-01-17T02:52:01.440Z,2.67
2023-01-17T02:54:49.841Z,2.73
2023-01-17T02:57:45.111Z,2.81
2023-01-17T03:00:44.963Z,2.91
2023-01-17T03:03:52.988Z,2.90
2023-01-17T03:06:23.925Z,2.84
2023-01-17T03:08:51.417Z,2.80
2023-01-17T03:11:18.857Z,2.72
2023-01-17T03:13:46.200Z,2.76
2023-01-17T03:16:21.407Z,2.76
2023-01-17T03:18:49.438Z,2.79
2023-01-17T03:21:16.866Z,2.75
2023-01-17T03:23:44.406Z,2.73
2023-01-17T03:26:11.720Z,2.77
2023-01-17T03:28:39.088Z,2.77
2023-01-17T03:31:06.511Z,2.72
2023-01-17T03:33:33.912Z,2.79
2023-01-17T03:36:01.219Z,2.84
2023-01-17T03:38:28.797Z,2.79
2023-01-17T03:40:56.063Z,2.75
2023-01-17T03:43:23.416Z,2.72
2023-01-17T03:45:52.226Z,2.73
2023-01-17T03:48:19.723Z,2.79
2023-01-17T03:50:50.834Z,2.76
2023-01-17T03:53:18.195Z,2.83
2023-01-17T03:55:46.201Z,2.89
2023-01-17T03:58:13.528Z,2.90
2023-01-17T04:00:40.827Z,2.94
2023-01-17T04:03:08.173Z,3.00
2023-01-17T04:05:35.424Z,3.08
2023-01-17T04:08:03.291Z,3.05
2023-01-17T04:10:30.550Z,3.08
2023-01-17T04:12:57.895Z,3.08
2023-01-17T04:15:25.183Z,3.19
2023-01-17T04:17:52.651Z,3.18
2023-01-17T04:20:32.524Z,3.19
2023-01-17T04:22:59.837Z,3.12
2023-01-17T04:25:27.538Z,3.14
2023-01-17T04:27:54.904Z,3.22
2023-01-17T04:30:22.193Z,3.31
2023-01-17T04:32:49.601Z,3.25
2023-01-17T04:35:17.056Z,3.22
2023-01-17T04:37:44.452Z,3.25
2023-01-17T04:40:12.179Z,3.29
2023-01-17T04:42:39.889Z,3.32
2023-01-17T04:45:07.883Z,3.08
2023-01-17T04:47:35.209Z,3.10
2023-01-17T04:50:02.569Z,3.08
2023-01-17T04:52:29.975Z,2.93
2023-01-17T04:54:57.215Z,2.93
2023-01-17T04:57:25.342Z,3.04
2023-01-17T04:59:53.755Z,3.10
2023-01-17T05:02:21.153Z,3.19
2023-01-17T05:04:48.461Z,3.15
2023-01-17T05:07:15.871Z,3.11
2023-01-17T05:09:43.947Z,3.19
2023-01-17T05:12:11.360Z,3.19
2023-01-17T05:14:38.652Z,3.14
2023-01-17T05:17:06.006Z,3.22
2023-01-17T05:19:33.405Z,3.34
2023-01-17T05:22:04.286Z,3.24
2023-01-17T05:24:32.377Z,3.40
2023-01-17T05:27:03.940Z,3.31
2023-01-17T05:29:31.285Z,3.24
2023-01-17T05:31:58.543Z,3.22
2023-01-17T05:34:25.956Z,3.31
2023-01-17T05:36:53.293Z,3.40
2023-01-17T05:39:20.610Z,3.27
2023-01-17T05:41:47.926Z,3.18
2023-01-17T05:44:18.333Z,3.32
2023-01-17T05:46:45.690Z,3.38
2023-01-17T05:49:13.056Z,3.29
2023-01-17T05:51:40.611Z,3.24
2023-01-17T05:54:13.654Z,3.34
2023-01-17T05:56:42.150Z,3.35
2023-01-17T05:59:14.165Z,3.40
2023-01-17T06:01:41.770Z,3.51
2023-01-17T06:04:09.105Z,3.54
2023-01-17T06:06:36.442Z,3.42
2023-01-17T06:09:03.850Z,3.52
2023-01-17T06:11:31.281Z,3.49
2023-01-17T06:13:58.547Z,3.28
2023-01-17T06:16:25.928Z,3.24
2023-01-17T06:18:53.299Z,3.24
2023-01-17T06:21:20.943Z,3.21
2023-01-17T06:23:48.312Z,3.12
2023-01-17T06:26:16.361Z,3.15
2023-01-17T06:28:43.769Z,3.15
2023-01-17T06:31:22.279Z,3.04
2023-01-17T06:34:14.309Z,2.97
2023-01-17T06:36:41.978Z,2.93
2023-01-17T06:39:10.977Z,2.84
2023-01-17T06:41:38.422Z,2.80
2023-01-17T06:44:07.680Z,2.86
2023-01-17T06:46:35.608Z,2.75
2023-01-17T06:49:03.661Z,2.76
2023-01-17T06:51:34.311Z,2.80
2023-01-17T06:54:01.722Z,2.80
2023-01-17T06:56:32.288Z,2.81
2023-01-17T06:59:00.452Z,2.73
2023-01-17T07:01:28.279Z,2.86
2023-01-17T07:03:56.194Z,2.84
2023-01-17T07:06:29.072Z,3.00
2023-01-17T07:08:56.790Z,2.86
2023-01-17T07:11:24.475Z,3.01
2023-01-17T07:13:51.911Z,3.19
2023-01-17T07:16:19.460Z,3.56
2023-01-17T07:18:47.461Z,3.56
2023-01-17T07:21:15.382Z,4.14
2023-01-17T07:23:45.814Z,4.48
2023-01-17T07:26:14.244Z,4.59
2023-01-17T07:28:41.981Z,4.85
2023-01-17T07:31:09.463Z,4.99
2023-01-17T07:33:36.937Z,5.01
2023-01-17T07:36:07.722Z,4.76
2023-01-17T07:38:35.448Z,4.82
2023-01-17T07:41:03.101Z,5.82
2023-01-17T07:43:30.548Z,6.64
2023-01-17T07:46:01.290Z,6.64
2023-01-17T07:48:30.550Z,7.15
2023-01-17T07:50:58.412Z,6.96
2023-01-17T07:53:26.983Z,5.22
2023-01-17T07:55:54.457Z,4.83
2023-01-17T07:58:21.864Z,4.40
2023-01-17T08:00:49.410Z,4.25
2023-01-17T08:03:18.057Z,3.86
2023-01-17T08:05:53.790Z,3.60
2023-01-17T08:08:21.420Z,3.60
2023-01-17T08:10:49.634Z,3.27
2023-01-17T08:13:17.585Z,3.36
2023-01-17T08:15:44.894Z,3.34
2023-01-17T08:18:21.161Z,3.35
2023-01-17T08:20:48.830Z,3.43
2023-01-17T08:23:16.353Z,3.51
2023-01-17T08:25:44.456Z,3.38
2023-01-17T08:28:16.063Z,3.38
2023-01-17T08:30:43.724Z,3.36
2023-01-17T08:33:11.690Z,3.34
2023-01-17T08:35:53.435Z,3.51
2023-01-17T08:38:23.940Z,3.60
2023-01-17T08:40:52.329Z,3.60
2023-01-17T08:43:19.896Z,3.66
2023-01-17T08:45:48.461Z,3.63
2023-01-17T08:48:18.201Z,3.65
2023-01-17T08:50:46.428Z,3.82
2023-01-17T08:53:14.152Z,3.80
2023-01-17T08:55:41.804Z,3.86
2023-01-17T08:58:12.402Z,3.94
2023-01-17T09:00:43.376Z,4.04
2023-01-17T09:03:14.655Z,4.11
2023-01-17T09:05:47.428Z,4.18
2023-01-17T09:08:18.127Z,4.37
2023-01-17T09:10:46.465Z,4.51
2023-01-17T09:13:14.209Z,4.47
2023-01-17T09:15:41.542Z,4.52
2023-01-17T09:18:09.000Z,4.64
2023-01-17T09:20:36.637Z,4.72
2023-01-17T09:23:04.477Z,4.90
2023-01-17T09:25:31.812Z,4.92
2023-01-17T09:27:59.915Z,4.90
2023-01-17T09:30:27.401Z,4.93
2023-01-17T09:33:00.895Z,4.78
2023-01-17T09:35:29.192Z,4.71
2023-01-17T09:37:57.328Z,4.76
2023-01-17T09:40:25.142Z,4.82
2023-01-17T09:42:54.813Z,5.36
2023-01-17T09:45:43.979Z,5.74
2023-01-17T09:48:14.623Z,5.72
2023-01-17T09:50:53.155Z,5.76
2023-01-17T09:53:21.606Z,5.89
2023-01-17T09:55:58.005Z,6.10
2023-01-17T09:58:42.743Z,5.89
2023-01-17T10:01:23.577Z,5.68
2023-01-17T10:04:33.437Z,5.95
2023-01-17T10:07:12.147Z,6.23
2023-01-17T10:09:55.098Z,6.19
2023-01-17T10:12:40.842Z,6.10
2023-01-17T10:15:27.760Z,5.92
2023-01-17T10:18:29.269Z,6.12
2023-01-17T10:21:27.591Z,6.03
2023-01-17T10:24:20.343Z,6.20
2023-01-17T10:26:50.193Z,6.05
2023-01-17T10:29:21.016Z,6.12
2023-01-17T10:31:56.144Z,6.27
2023-01-17T10:34:32.128Z,6.43
2023-01-17T10:37:11.519Z,6.57
2023-01-17T10:39:39.549Z,6.47
2023-01-17T10:42:31.189Z,6.40
2023-01-17T10:45:06.460Z,6.20
2023-01-17T10:47:36.950Z,6.60
2023-01-17T10:50:05.479Z,6.53
2023-01-17T10:53:03.093Z,6.41
2023-01-17T10:55:45.710Z,6.09
2023-01-17T10:58:25.158Z,6.06
2023-01-17T11:00:57.856Z,6.22
2023-01-17T11:03:59.678Z,6.24
2023-01-17T11:07:26.973Z,6.29
2023-01-17T11:09:58.607Z,5.99
2023-01-17T11:12:45.999Z,5.85
2023-01-17T11:15:18.053Z,5.84
2023-01-17T11:18:06.049Z,6.09
2023-01-17T11:20:38.654Z,6.34
2023-01-17T11:23:25.519Z,6.37
2023-01-17T11:26:02.822Z,6.34
2023-01-17T11:28:39.790Z,6.33
2023-01-17T11:31:28.652Z,6.30
2023-01-17T11:34:19.166Z,6.24
2023-01-17T11:36:46.951Z,6.30
2023-01-17T11:39:17.377Z,6.41
2023-01-17T11:41:46.418Z,6.61
2023-01-17T11:44:34.229Z,6.64
2023-01-17T11:47:14.349Z,6.67
2023-01-17T11:49:46.075Z,6.57
2023-01-17T11:52:40.120Z,6.60
2023-01-17T11:55:26.287Z,6.61
2023-01-17T11:57:56.458Z,6.64
2023-01-17T12:00:41.807Z,6.54
2023-01-17T12:03:30.901Z,6.55
2023-01-17T12:06:22.297Z,6.40
2023-01-17T12:09:02.149Z,6.32
2023-01-17T12:11:37.658Z,6.48
2023-01-17T12:14:32.168Z,6.53
2023-01-17T12:17:11.752Z,6.58
2023-01-17T12:19:55.012Z,6.48
2023-01-17T12:22:40.788Z,6.40
2023-01-17T12:25:28.611Z,6.48
2023-01-17T12:28:10.549Z,6.57
2023-01-17T12:30:51.241Z,6.43
2023-01-17T12:33:31.331Z,6.50
2023-01-17T12:36:05.549Z,6.70
2023-01-17T12:38:38.526Z,6.65
2023-01-17T12:41:10.458Z,6.47
2023-01-17T12:43:40.477Z,6.34
2023-01-17T12:46:14.992Z,6.37
2023-01-17T12:48:43.169Z,6.63
2023-01-17T12:51:17.637Z,6.60
2023-01-17T12:54:20.452Z,6.60
2023-01-17T12:56:51.809Z,6.53
2023-01-17T12:59:35.783Z,6.73
2023-01-17T13:02:11.088Z,6.67
2023-01-17T13:04:58.836Z,6.68
2023-01-17T13:07:36.586Z,6.78
2023-01-17T13:10:35.553Z,6.81
2023-01-17T13:13:26.915Z,6.75
2023-01-17T13:16:17.761Z,6.73
2023-01-17T13:18:49.194Z,6.64
2023-01-17T13:21:32.695Z,6.87
2023-01-17T13:24:02.242Z,6.91
2023-01-17T13:26:48.926Z,6.81
2023-01-17T13:29:50.952Z,6.89
2023-01-17T13:32:46.335Z,6.81
2023-01-17T13:35:45.190Z,6.83
2023-01-17T13:38:34.814Z,6.89
2023-01-17T13:41:04.780Z,6.87
2023-01-17T13:43:38.034Z,6.64
2023-01-17T13:46:05.628Z,6.80
2023-01-17T13:48:41.144Z,6.83
2023-01-17T13:51:09.250Z,6.77
2023-01-17T13:53:39.350Z,6.77
2023-01-17T13:56:09.684Z,6.83
2023-01-17T13:58:50.507Z,6.87
2023-01-17T14:01:24.533Z,6.83
2023-01-17T14:03:52.217Z,6.83
2023-01-17T14:06:38.484Z,6.94
2023-01-17T14:09:11.971Z,6.85
2023-01-17T14:11:59.167Z,6.71
2023-01-17T14:14:42.045Z,6.65
2023-01-17T14:17:26.143Z,6.83
2023-01-17T14:20:06.225Z,6.80
2023-01-17T14:22:35.958Z,6.60
2023-01-17T14:25:10.056Z,6.68
2023-01-17T14:27:43.403Z,6.64
2023-01-17T14:30:17.701Z,6.71
2023-01-17T14:33:18.928Z,6.77
2023-01-17T14:35:56.255Z,6.73
2023-01-17T14:38:24.544Z,6.65
2023-01-17T14:41:06.872Z,6.60
2023-01-17T14:43:35.746Z,6.57
2023-01-17T14:46:07.208Z,6.50
2023-01-17T14:48:34.767Z,6.58
2023-01-17T14:51:02.194Z,6.53
2023-01-17T14:53:30.784Z,6.64
2023-01-17T14:56:22.206Z,6.58
2023-01-17T14:59:21.279Z,6.53
2023-01-17T15:02:07.144Z,6.54
2023-01-17T15:04:39.895Z,6.55
2023-01-17T15:07:07.798Z,6.74
2023-01-17T15:09:35.964Z,6.68
2023-01-17T15:12:04.430Z,6.65
2023-01-17T15:14:33.685Z,6.71
2023-01-17T15:17:10.821Z,6.50
2023-01-17T15:19:44.872Z,6.40
2023-01-17T15:22:12.205Z,6.55
2023-01-17T15:24:44.634Z,6.43
2023-01-17T15:27:14.755Z,6.24
2023-01-17T15:29:42.114Z,6.46
2023-01-17T15:32:18.488Z,6.33
2023-01-17T15:34:47.105Z,6.24
2023-01-17T15:37:31.189Z,6.43
2023-01-17T15:40:18.729Z,6.29
2023-01-17T15:42:53.851Z,6.32
2023-01-17T15:45:24.278Z,6.27
2023-01-17T15:47:51.576Z,6.36
2023-01-17T15:50:23.847Z,6.24
2023-01-17T15:52:52.694Z,6.12
2023-01-17T15:55:24.695Z,6.29
2023-01-17T15:57:52.309Z,6.07
2023-01-17T16:00:21.192Z,6.01
2023-01-17T16:02:55.243Z,5.96
2023-01-17T16:05:27.614Z,5.98
2023-01-17T16:08:16.385Z,5.98
2023-01-17T16:10:44.158Z,6.02
2023-01-17T16:13:12.900Z,6.05
2023-01-17T16:15:43.348Z,5.99
2023-01-17T16:18:16.600Z,5.89
2023-01-17T16:20:48.896Z,5.88
2023-01-17T16:23:17.279Z,5.92
2023-01-17T16:25:45.958Z,6.01
2023-01-17T16:28:13.667Z,5.98
2023-01-17T16:30:41.064Z,6.02
2023-01-17T16:33:10.203Z,5.86
2023-01-17T16:35:37.757Z,5.88
2023-01-17T16:38:10.497Z,5.78
2023-01-17T16:40:44.006Z,5.76
2023-01-17T16:43:14.615Z,5.65
2023-01-17T16:45:49.143Z,5.54
2023-01-17T16:48:19.044Z,5.43
2023-01-17T16:50:49.812Z,5.40
2023-01-17T16:53:25.078Z,5.38
2023-01-17T16:55:56.380Z,5.34
2023-01-17T16:58:24.039Z,5.27
2023-01-17T17:00:51.566Z,5.16
2023-01-17T17:03:20.230Z,5.05
2023-01-17T17:05:55.191Z,5.03
2023-01-17T17:08:22.708Z,5.01
2023-01-17T17:10:50.133Z,4.83
2023-01-17T17:13:17.492Z,4.83
2023-01-17T17:15:45.005Z,4.87
2023-01-17T17:18:16.608Z,4.93
2023-01-17T17:20:44.281Z,4.85
2023-01-17T17:23:11.575Z,4.83
2023-01-17T17:25:39.043Z,4.83
2023-01-17T17:28:06.545Z,4.82
2023-01-17T17:30:34.642Z,4.82
2023-01-17T17:33:04.767Z,4.89
2023-01-17T17:35:35.294Z,4.83
2023-01-17T17:38:02.610Z,4.89
2023-01-17T17:40:29.907Z,4.86
2023-01-17T17:42:57.373Z,4.92
2023-01-17T17:45:24.734Z,4.95
2023-01-17T17:47:52.240Z,4.97
2023-01-17T17:50:19.707Z,4.92
2023-01-17T17:52:48.245Z,5.03
2023-01-17T17:55:19.114Z,4.93
2023-01-17T17:57:46.441Z,4.87
2023-01-17T18:00:14.099Z,4.97
2023-01-17T18:02:41.548Z,5.00
2023-01-17T18:05:09.286Z,5.10
2023-01-17T18:07:36.677Z,5.13
2023-01-17T18:10:04.388Z,5.12
2023-01-17T18:12:31.741Z,5.19
2023-01-17T18:14:59.030Z,5.23
2023-01-17T18:17:26.439Z,5.24
2023-01-17T18:19:53.777Z,5.19
2023-01-17T18:22:21.247Z,5.19
2023-01-17T18:24:48.597Z,5.16
2023-01-17T18:27:15.896Z,5.27
2023-01-17T18:29:43.255Z,5.20
2023-01-17T18:32:10.601Z,5.19
2023-01-17T18:34:41.588Z,5.26
2023-01-17T18:37:09.036Z,5.15
2023-01-17T18:39:36.408Z,5.17
2023-01-17T18:42:03.859Z,5.15
2023-01-17T18:44:31.209Z,5.20
2023-01-17T18:47:02.161Z,5.19
2023-01-17T18:49:29.647Z,5.01
2023-01-17T18:51:56.966Z,5.13
2023-01-17T18:54:24.280Z,5.15
2023-01-17T18:56:51.533Z,5.20
2023-01-17T18:59:19.058Z,5.23
2023-01-17T19:01:46.577Z,5.22
2023-01-17T19:04:14.577Z,5.10
2023-01-17T19:06:43.571Z,5.22
2023-01-17T19:09:11.679Z,5.13
2023-01-17T19:11:39.211Z,5.09
2023-01-17T19:14:06.858Z,5.15
2023-01-17T19:16:36.491Z,5.16
2023-01-17T19:19:05.493Z,5.15
2023-01-17T19:21:32.859Z,5.13
2023-01-17T19:24:00.271Z,5.06
2023-01-17T19:26:27.808Z,5.13
2023-01-17T19:28:56.363Z,5.22
2023-01-17T19:31:27.884Z,5.19
2023-01-17T19:33:57.584Z,5.26
2023-01-17T19:36:29.256Z,5.22
2023-01-17T19:39:04.912Z,5.20
2023-01-17T19:41:33.375Z,5.12
2023-01-17T19:44:02.171Z,5.13
2023-01-17T19:46:29.755Z,5.24
2023-01-17T19:48:57.218Z,5.26
2023-01-17T19:51:24.916Z,5.33
2023-01-17T19:53:53.664Z,5.30
2023-01-17T19:56:25.335Z,5.20
2023-01-17T19:58:52.695Z,5.17
2023-01-17T20:01:25.314Z,5.27
2023-01-17T20:03:52.986Z,5.26
2023-01-17T20:06:24.331Z,5.37
2023-01-17T20:08:51.612Z,5.23
2023-01-17T20:11:20.549Z,5.27
2023-01-17T20:13:48.687Z,5.33
2023-01-17T20:16:16.397Z,5.26
2023-01-17T20:18:43.974Z,5.17
2023-01-17T20:21:17.314Z,5.28
2023-01-17T20:23:47.067Z,5.30
2023-01-17T20:26:15.331Z,5.26
2023-01-17T20:28:43.527Z,5.19
2023-01-17T20:31:21.446Z,5.23
2023-01-17T20:33:50.528Z,5.16
2023-01-17T20:36:18.821Z,5.20
2023-01-17T20:38:46.387Z,5.27
2023-01-17T20:41:24.806Z,5.23
2023-01-17T20:43:53.621Z,5.28
2023-01-17T20:46:22.002Z,5.30
2023-01-17T20:48:51.190Z,5.20
2023-01-17T20:51:18.715Z,5.15
2023-01-17T20:53:46.880Z,5.10
2023-01-17T20:56:15.492Z,5.13
2023-01-17T20:58:42.894Z,5.10
2023-01-17T21:01:11.250Z,5.09
2023-01-17T21:03:39.188Z,5.06
2023-01-17T21:06:10.613Z,5.09
2023-01-17T21:08:38.949Z,5.06
2023-01-17T21:11:06.541Z,5.00
2023-01-17T21:13:33.961Z,5.06
2023-01-17T21:16:01.297Z,5.16
2023-01-17T21:18:31.726Z,5.16
2023-01-17T21:21:10.033Z,5.33
2023-01-17T21:23:37.999Z,5.17
2023-01-17T21:26:06.036Z,5.17
2023-01-17T21:28:35.408Z,5.13
2023-01-17T21:31:18.161Z,5.22
2023-01-17T21:33:45.619Z,5.27
2023-01-17T21:36:13.272Z,5.26
2023-01-17T21:38:40.630Z,5.07
2023-01-17T21:41:07.932Z,5.00
2023-01-17T21:43:35.296Z,5.12
2023-01-17T21:46:03.430Z,5.12
2023-01-17T21:48:31.044Z,5.15
2023-01-17T21:51:07.980Z,5.24
2023-01-17T21:53:39.290Z,5.41
2023-01-17T21:56:26.599Z,5.37
2023-01-17T21:58:55.470Z,5.28
2023-01-17T22:01:27.220Z,5.27
2023-01-17T22:03:54.630Z,5.20
2023-01-17T22:06:22.722Z,5.24
2023-01-17T22:08:50.053Z,5.33
2023-01-17T22:11:19.479Z,5.43
2023-01-17T22:13:47.361Z,5.38
2023-01-17T22:16:16.506Z,5.47
2023-01-17T22:18:44.335Z,5.38
2023-01-17T22:21:13.660Z,5.38
2023-01-17T22:23:47.765Z,5.51
2023-01-17T22:26:15.223Z,5.45
2023-01-17T22:28:42.736Z,5.51
2023-01-17T22:31:21.086Z,5.28
2023-01-17T22:33:52.550Z,5.31
2023-01-17T22:36:20.260Z,5.16
2023-01-17T22:38:47.547Z,5.28
2023-01-17T22:41:25.276Z,5.23
2023-01-17T22:43:53.536Z,5.09
2023-01-17T22:46:22.210Z,5.05
2023-01-17T22:48:49.633Z,5.05
2023-01-17T22:51:18.026Z,5.27
2023-01-17T22:53:47.401Z,5.33
2023-01-17T22:56:16.812Z,5.27
2023-01-17T22:58:48.857Z,5.09
2023-01-17T23:01:21.046Z,5.01
2023-01-17T23:03:53.306Z,5.05
2023-01-17T23:06:31.634Z,5.15
2023-01-17T23:09:00.495Z,5.28
2023-01-17T23:11:42.703Z,5.43
2023-01-17T23:14:53.874Z,5.45
2023-01-17T23:17:40.671Z,5.40
2023-01-17T23:20:09.121Z,5.37
2023-01-17T23:22:36.493Z,5.36
2023-01-17T23:25:11.514Z,5.38
2023-01-17T23:27:59.041Z,5.37
2023-01-17T23:30:37.524Z,5.40
2023-01-17T23:33:09.498Z,5.30
2023-01-17T23:35:41.686Z,5.16
2023-01-17T23:38:33.748Z,5.06
2023-01-17T23:41:28.715Z,5.06
2023-01-17T23:43:57.919Z,5.09
2023-01-17T23:46:25.757Z,5.06
2023-01-17T23:48:53.134Z,5.03
2023-01-17T23:51:20.381Z,5.15
2023-01-17T23:53:47.757Z,5.27
2023-01-17T23:56:21.011Z,5.31
2023-01-17T23:58:48.354Z,5.28
